sensor_id;sensor_type;location;lat;lon;timestamp;pressure;altitude;pressure_sealevel;temperature;humidity
54248;BME280;40161;39.768;2.722;2023-12-04T00:00:26;101603.06;;;11.97;84.23
54248;BME280;40161;39.768;2.722;2023-12-04T00:02:51;101597.16;;;11.95;84.42
54248;BME280;40161;39.768;2.722;2023-12-04T00:05:17;101586.94;;;11.95;85.20
54248;BME280;40161;39.768;2.722;2023-12-04T00:07:43;101599.72;;;12.03;84.98
54248;BME280;40161;39.768;2.722;2023-12-04T00:10:08;101570.38;;;11.79;85.48
54248;BME280;40161;39.768;2.722;2023-12-04T00:12:34;101587.88;;;11.87;86.18
54248;BME280;40161;39.768;2.722;2023-12-04T00:14:59;101561.25;;;11.75;85.52
54248;BME280;40161;39.768;2.722;2023-12-04T00:17:25;101579.22;;;11.85;86.16
54248;BME280;40161;39.768;2.722;2023-12-04T00:19:51;101550.91;;;11.84;84.97
54248;BME280;40161;39.768;2.722;2023-12-04T00:22:16;101562.88;;;11.92;84.32
54248;BME280;40161;39.768;2.722;2023-12-04T00:24:42;101567.41;;;11.84;86.25
54248;BME280;40161;39.768;2.722;2023-12-04T00:27:07;101531.47;;;11.77;85.98
54248;BME280;40161;39.768;2.722;2023-12-04T00:29:33;101551.25;;;11.99;84.75
54248;BME280;40161;39.768;2.722;2023-12-04T00:31:58;101550.56;;;12.02;84.62
54248;BME280;40161;39.768;2.722;2023-12-04T00:34:24;101519.00;;;11.83;83.87
54248;BME280;40161;39.768;2.722;2023-12-04T00:36:49;101545.56;;;12.07;83.74
54248;BME280;40161;39.768;2.722;2023-12-04T00:39:15;101550.91;;;12.16;82.71
54248;BME280;40161;39.768;2.722;2023-12-04T00:41:41;101538.47;;;12.06;81.95
54248;BME280;40161;39.768;2.722;2023-12-04T00:44:07;101556.28;;;12.28;80.11
54248;BME280;40161;39.768;2.722;2023-12-04T00:46:32;101532.88;;;12.19;80.14
54248;BME280;40161;39.768;2.722;2023-12-04T00:48:58;101558.41;;;12.35;79.70
54248;BME280;40161;39.768;2.722;2023-12-04T00:51:23;101561.25;;;12.39;79.84
54248;BME280;40161;39.768;2.722;2023-12-04T00:53:49;101555.72;;;12.39;79.77
54248;BME280;40161;39.768;2.722;2023-12-04T00:56:14;101553.50;;;12.44;79.93
54248;BME280;40161;39.768;2.722;2023-12-04T00:58:40;101556.63;;;12.43;79.28
54248;BME280;40161;39.768;2.722;2023-12-04T01:01:06;101549.97;;;12.44;79.86
54248;BME280;40161;39.768;2.722;2023-12-04T01:03:31;101520.63;;;12.32;79.91
54248;BME280;40161;39.768;2.722;2023-12-04T01:05:59;101532.91;;;12.38;80.10
54248;BME280;40161;39.768;2.722;2023-12-04T01:08:24;101526.38;;;12.27;80.68
54248;BME280;40161;39.768;2.722;2023-12-04T01:10:50;101523.91;;;12.22;80.90
54248;BME280;40161;39.768;2.722;2023-12-04T01:13:15;101517.25;;;12.23;81.03
54248;BME280;40161;39.768;2.722;2023-12-04T01:15:41;101503.50;;;12.23;80.65
54248;BME280;40161;39.768;2.722;2023-12-04T01:18:08;101498.31;;;12.21;80.64
54248;BME280;40161;39.768;2.722;2023-12-04T01:20:34;101474.31;;;12.18;80.61
54248;BME280;40161;39.768;2.722;2023-12-04T01:22:59;101451.69;;;12.09;80.63
54248;BME280;40161;39.768;2.722;2023-12-04T01:25:25;101467.00;;;12.26;79.61
54248;BME280;40161;39.768;2.722;2023-12-04T01:27:51;101466.56;;;12.24;80.17
54248;BME280;40161;39.768;2.722;2023-12-04T01:30:16;101460.72;;;12.09;80.83
54248;BME280;40161;39.768;2.722;2023-12-04T01:32:42;101468.38;;;12.00;81.39
54248;BME280;40161;39.768;2.722;2023-12-04T01:35:07;101472.44;;;12.06;82.52
54248;BME280;40161;39.768;2.722;2023-12-04T01:37:33;101465.59;;;12.16;81.47
54248;BME280;40161;39.768;2.722;2023-12-04T01:39:59;101443.84;;;12.11;81.10
54248;BME280;40161;39.768;2.722;2023-12-04T01:42:26;101465.91;;;12.30;81.08
54248;BME280;40161;39.768;2.722;2023-12-04T01:44:51;101451.63;;;12.25;80.05
54248;BME280;40161;39.768;2.722;2023-12-04T01:47:17;101486.19;;;12.42;80.26
54248;BME280;40161;39.768;2.722;2023-12-04T01:49:43;101467.50;;;12.31;80.05
54248;BME280;40161;39.768;2.722;2023-12-04T01:52:09;101477.69;;;12.47;80.48
54248;BME280;40161;39.768;2.722;2023-12-04T01:54:35;101476.31;;;12.56;80.43
54248;BME280;40161;39.768;2.722;2023-12-04T01:57:02;101480.66;;;12.57;79.87
54248;BME280;40161;39.768;2.722;2023-12-04T01:59:28;101484.50;;;12.53;80.93
54248;BME280;40161;39.768;2.722;2023-12-04T02:01:54;101483.47;;;12.61;80.79
54248;BME280;40161;39.768;2.722;2023-12-04T02:04:21;101471.03;;;12.67;81.76
54248;BME280;40161;39.768;2.722;2023-12-04T02:06:47;101464.94;;;12.58;82.02
54248;BME280;40161;39.768;2.722;2023-12-04T02:09:13;101469.06;;;12.68;81.65
54248;BME280;40161;39.768;2.722;2023-12-04T02:11:41;101440.06;;;12.54;82.81
54248;BME280;40161;39.768;2.722;2023-12-04T02:14:07;101457.69;;;12.69;82.14
54248;BME280;40161;39.768;2.722;2023-12-04T02:16:38;101445.16;;;12.72;82.37
54248;BME280;40161;39.768;2.722;2023-12-04T02:19:07;101446.72;;;12.73;82.71
54248;BME280;40161;39.768;2.722;2023-12-04T02:21:33;101453.72;;;12.67;83.43
54248;BME280;40161;39.768;2.722;2023-12-04T02:23:58;101411.38;;;12.36;84.30
54248;BME280;40161;39.768;2.722;2023-12-04T02:26:28;101455.06;;;12.57;84.60
54248;BME280;40161;39.768;2.722;2023-12-04T02:28:58;101423.19;;;12.37;84.55
54248;BME280;40161;39.768;2.722;2023-12-04T02:31:27;101438.84;;;12.52;85.40
54248;BME280;40161;39.768;2.722;2023-12-04T02:33:55;101444.56;;;12.63;84.78
54248;BME280;40161;39.768;2.722;2023-12-04T02:36:23;101433.72;;;12.70;85.23
54248;BME280;40161;39.768;2.722;2023-12-04T02:38:50;101425.06;;;12.71;85.43
54248;BME280;40161;39.768;2.722;2023-12-04T02:41:16;101371.19;;;12.51;85.32
54248;BME280;40161;39.768;2.722;2023-12-04T02:43:43;101405.06;;;12.74;86.27
54248;BME280;40161;39.768;2.722;2023-12-04T02:46:08;101395.56;;;12.52;85.87
54248;BME280;40161;39.768;2.722;2023-12-04T02:48:34;101432.09;;;12.69;86.74
54248;BME280;40161;39.768;2.722;2023-12-04T02:50:59;101430.28;;;12.76;85.90
54248;BME280;40161;39.768;2.722;2023-12-04T02:53:25;101429.47;;;12.76;86.59
54248;BME280;40161;39.768;2.722;2023-12-04T02:55:51;101409.94;;;12.62;85.98
54248;BME280;40161;39.768;2.722;2023-12-04T02:58:16;101413.19;;;12.67;86.15
54248;BME280;40161;39.768;2.722;2023-12-04T03:00:42;101418.19;;;12.81;86.43
54248;BME280;40161;39.768;2.722;2023-12-04T03:03:07;101410.34;;;12.83;86.01
54248;BME280;40161;39.768;2.722;2023-12-04T03:05:33;101389.84;;;12.80;85.54
54248;BME280;40161;39.768;2.722;2023-12-04T03:07:58;101395.19;;;12.93;85.44
54248;BME280;40161;39.768;2.722;2023-12-04T03:10:24;101404.34;;;13.00;85.60
54248;BME280;40161;39.768;2.722;2023-12-04T03:12:49;101410.63;;;12.97;86.20
54248;BME280;40161;39.768;2.722;2023-12-04T03:15:15;101403.50;;;12.96;86.91
54248;BME280;40161;39.768;2.722;2023-12-04T03:17:40;101405.41;;;12.92;86.53
54248;BME280;40161;39.768;2.722;2023-12-04T03:20:06;101421.00;;;12.85;87.27
54248;BME280;40161;39.768;2.722;2023-12-04T03:22:35;101418.25;;;12.85;87.84
54248;BME280;40161;39.768;2.722;2023-12-04T03:25:01;101423.09;;;12.91;87.42
54248;BME280;40161;39.768;2.722;2023-12-04T03:27:26;101426.06;;;13.02;86.96
54248;BME280;40161;39.768;2.722;2023-12-04T03:29:52;101411.34;;;12.94;86.69
54248;BME280;40161;39.768;2.722;2023-12-04T03:32:17;101423.44;;;13.09;86.49
54248;BME280;40161;39.768;2.722;2023-12-04T03:34:43;101426.97;;;13.10;86.31
54248;BME280;40161;39.768;2.722;2023-12-04T03:37:09;101421.72;;;13.01;86.19
54248;BME280;40161;39.768;2.722;2023-12-04T03:39:34;101416.47;;;12.96;88.27
54248;BME280;40161;39.768;2.722;2023-12-04T03:42:00;101393.88;;;12.87;87.87
54248;BME280;40161;39.768;2.722;2023-12-04T03:44:25;101379.69;;;12.85;87.91
54248;BME280;40161;39.768;2.722;2023-12-04T03:46:51;101393.50;;;13.07;87.36
54248;BME280;40161;39.768;2.722;2023-12-04T03:49:17;101372.28;;;12.89;87.05
54248;BME280;40161;39.768;2.722;2023-12-04T03:51:42;101386.75;;;13.05;87.89
54248;BME280;40161;39.768;2.722;2023-12-04T03:54:08;101367.28;;;12.94;87.86
54248;BME280;40161;39.768;2.722;2023-12-04T03:56:34;101368.25;;;13.05;87.76
54248;BME280;40161;39.768;2.722;2023-12-04T03:58:59;101374.19;;;13.07;88.03
54248;BME280;40161;39.768;2.722;2023-12-04T04:01:25;101349.63;;;12.99;87.37
54248;BME280;40161;39.768;2.722;2023-12-04T04:03:50;101372.97;;;13.05;87.16
54248;BME280;40161;39.768;2.722;2023-12-04T04:06:16;101357.78;;;12.92;87.06
54248;BME280;40161;39.768;2.722;2023-12-04T04:08:41;101354.16;;;12.88;87.90
54248;BME280;40161;39.768;2.722;2023-12-04T04:11:07;101360.16;;;12.93;87.64
54248;BME280;40161;39.768;2.722;2023-12-04T04:13:32;101378.97;;;13.11;87.23
54248;BME280;40161;39.768;2.722;2023-12-04T04:15:58;101398.19;;;13.07;86.17
54248;BME280;40161;39.768;2.722;2023-12-04T04:18:23;101401.31;;;13.05;86.43
54248;BME280;40161;39.768;2.722;2023-12-04T04:20:49;101384.72;;;13.02;85.42
54248;BME280;40161;39.768;2.722;2023-12-04T04:23:14;101395.00;;;13.05;85.54
54248;BME280;40161;39.768;2.722;2023-12-04T04:25:40;101376.06;;;13.03;85.59
54248;BME280;40161;39.768;2.722;2023-12-04T04:28:06;101384.28;;;13.23;84.84
54248;BME280;40161;39.768;2.722;2023-12-04T04:30:31;101354.22;;;13.14;84.69
54248;BME280;40161;39.768;2.722;2023-12-04T04:32:57;101377.88;;;13.38;83.14
54248;BME280;40161;39.768;2.722;2023-12-04T04:35:22;101350.06;;;13.24;83.48
54248;BME280;40161;39.768;2.722;2023-12-04T04:37:48;101356.59;;;13.35;83.50
54248;BME280;40161;39.768;2.722;2023-12-04T04:40:13;101332.44;;;13.28;82.43
54248;BME280;40161;39.768;2.722;2023-12-04T04:42:39;101343.81;;;13.27;83.20
54248;BME280;40161;39.768;2.722;2023-12-04T04:45:05;101376.00;;;13.42;83.54
54248;BME280;40161;39.768;2.722;2023-12-04T04:47:30;101368.56;;;13.46;83.31
54248;BME280;40161;39.768;2.722;2023-12-04T04:49:56;101364.28;;;13.49;82.87
54248;BME280;40161;39.768;2.722;2023-12-04T04:52:21;101345.63;;;13.39;81.66
54248;BME280;40161;39.768;2.722;2023-12-04T04:54:47;101348.53;;;13.49;81.09
54248;BME280;40161;39.768;2.722;2023-12-04T04:57:12;101332.56;;;13.36;81.00
54248;BME280;40161;39.768;2.722;2023-12-04T04:59:38;101361.13;;;13.50;80.78
54248;BME280;40161;39.768;2.722;2023-12-04T05:02:03;101334.16;;;13.37;81.76
54248;BME280;40161;39.768;2.722;2023-12-04T05:04:29;101334.16;;;13.37;81.14
54248;BME280;40161;39.768;2.722;2023-12-04T05:06:54;101354.03;;;13.49;81.25
54248;BME280;40161;39.768;2.722;2023-12-04T05:09:20;101365.91;;;13.53;80.92
54248;BME280;40161;39.768;2.722;2023-12-04T05:11:45;101356.47;;;13.54;80.80
54248;BME280;40161;39.768;2.722;2023-12-04T05:14:11;101340.94;;;13.43;80.69
54248;BME280;40161;39.768;2.722;2023-12-04T05:16:37;101352.81;;;13.47;80.83
54248;BME280;40161;39.768;2.722;2023-12-04T05:19:02;101351.34;;;13.53;80.74
54248;BME280;40161;39.768;2.722;2023-12-04T05:21:28;101329.84;;;13.39;80.33
54248;BME280;40161;39.768;2.722;2023-12-04T05:23:54;101359.22;;;13.54;79.98
54248;BME280;40161;39.768;2.722;2023-12-04T05:26:19;101335.47;;;13.46;80.28
54248;BME280;40161;39.768;2.722;2023-12-04T05:28:45;101360.47;;;13.57;79.06
54248;BME280;40161;39.768;2.722;2023-12-04T05:31:11;101349.38;;;13.53;78.80
54248;BME280;40161;39.768;2.722;2023-12-04T05:33:37;101338.41;;;13.57;76.46
54248;BME280;40161;39.768;2.722;2023-12-04T05:36:03;101328.63;;;13.63;77.34
54248;BME280;40161;39.768;2.722;2023-12-04T05:38:28;101321.38;;;13.51;76.60
54248;BME280;40161;39.768;2.722;2023-12-04T05:40:54;101351.78;;;13.59;77.83
54248;BME280;40161;39.768;2.722;2023-12-04T05:43:20;101354.16;;;13.57;78.00
54248;BME280;40161;39.768;2.722;2023-12-04T05:45:45;101329.91;;;13.43;78.01
54248;BME280;40161;39.768;2.722;2023-12-04T05:48:11;101357.31;;;13.59;77.58
54248;BME280;40161;39.768;2.722;2023-12-04T05:50:36;101351.78;;;13.59;77.29
54248;BME280;40161;39.768;2.722;2023-12-04T05:53:02;101333.81;;;13.42;77.46
54248;BME280;40161;39.768;2.722;2023-12-04T05:55:27;101356.06;;;13.52;76.32
54248;BME280;40161;39.768;2.722;2023-12-04T05:57:53;101345.38;;;13.51;75.11
54248;BME280;40161;39.768;2.722;2023-12-04T06:00:19;101340.56;;;13.44;74.57
54248;BME280;40161;39.768;2.722;2023-12-04T06:02:45;101348.59;;;13.53;74.34
54248;BME280;40161;39.768;2.722;2023-12-04T06:05:11;101343.31;;;13.44;74.28
54248;BME280;40161;39.768;2.722;2023-12-04T06:07:37;101356.47;;;13.54;73.31
54248;BME280;40161;39.768;2.722;2023-12-04T06:10:03;101359.72;;;13.60;73.35
54248;BME280;40161;39.768;2.722;2023-12-04T06:12:30;101335.88;;;13.48;72.82
54248;BME280;40161;39.768;2.722;2023-12-04T06:14:56;101326.88;;;13.51;71.96
54248;BME280;40161;39.768;2.722;2023-12-04T06:17:22;101347.94;;;13.63;72.78
54248;BME280;40161;39.768;2.722;2023-12-04T06:19:47;101350.81;;;13.70;72.67
54248;BME280;40161;39.768;2.722;2023-12-04T06:22:13;101334.06;;;13.56;71.97
54248;BME280;40161;39.768;2.722;2023-12-04T06:24:39;101343.16;;;13.60;73.09
54248;BME280;40161;39.768;2.722;2023-12-04T06:27:05;101362.19;;;13.69;72.19
54248;BME280;40161;39.768;2.722;2023-12-04T06:29:34;101363.69;;;13.63;72.94
54248;BME280;40161;39.768;2.722;2023-12-04T06:32:01;101364.44;;;13.60;74.56
54248;BME280;40161;39.768;2.722;2023-12-04T06:34:26;101376.25;;;13.60;74.35
54248;BME280;40161;39.768;2.722;2023-12-04T06:36:52;101367.16;;;13.56;74.50
54248;BME280;40161;39.768;2.722;2023-12-04T06:39:20;101351.53;;;13.41;74.98
54248;BME280;40161;39.768;2.722;2023-12-04T06:41:46;101382.81;;;13.52;75.32
54248;BME280;40161;39.768;2.722;2023-12-04T06:44:13;101360.53;;;13.38;75.12
54248;BME280;40161;39.768;2.722;2023-12-04T06:46:40;101379.72;;;13.53;73.96
54248;BME280;40161;39.768;2.722;2023-12-04T06:49:08;101367.22;;;13.37;75.07
54248;BME280;40161;39.768;2.722;2023-12-04T06:51:34;101382.03;;;13.51;75.10
54248;BME280;40161;39.768;2.722;2023-12-04T06:54:00;101374.44;;;13.45;74.37
54248;BME280;40161;39.768;2.722;2023-12-04T06:56:25;101377.69;;;13.50;75.90
54248;BME280;40161;39.768;2.722;2023-12-04T06:58:51;101347.53;;;13.38;74.75
54248;BME280;40161;39.768;2.722;2023-12-04T07:01:16;101363.50;;;13.52;74.27
54248;BME280;40161;39.768;2.722;2023-12-04T07:03:42;101360.34;;;13.50;74.02
54248;BME280;40161;39.768;2.722;2023-12-04T07:06:08;101337.13;;;13.51;73.33
54248;BME280;40161;39.768;2.722;2023-12-04T07:08:33;101321.78;;;13.53;73.23
54248;BME280;40161;39.768;2.722;2023-12-04T07:10:59;101335.19;;;13.55;73.53
54248;BME280;40161;39.768;2.722;2023-12-04T07:13:24;101358.59;;;13.65;74.07
54248;BME280;40161;39.768;2.722;2023-12-04T07:15:50;101350.78;;;13.44;74.40
54248;BME280;40161;39.768;2.722;2023-12-04T07:18:16;101378.63;;;13.62;74.69
54248;BME280;40161;39.768;2.722;2023-12-04T07:20:42;101356.41;;;13.51;74.63
54248;BME280;40161;39.768;2.722;2023-12-04T07:23:07;101362.09;;;13.62;74.12
54248;BME280;40161;39.768;2.722;2023-12-04T07:25:33;101372.47;;;13.72;74.39
54248;BME280;40161;39.768;2.722;2023-12-04T07:27:58;101363.97;;;13.81;75.08
54248;BME280;40161;39.768;2.722;2023-12-04T07:30:24;101367.88;;;13.80;74.75
54248;BME280;40161;39.768;2.722;2023-12-04T07:32:50;101369.81;;;13.79;75.70
54248;BME280;40161;39.768;2.722;2023-12-04T07:35:16;101369.69;;;13.68;74.64
54248;BME280;40161;39.768;2.722;2023-12-04T07:37:43;101389.13;;;13.79;74.79
54248;BME280;40161;39.768;2.722;2023-12-04T07:40:09;101375.50;;;13.90;73.14
54248;BME280;40161;39.768;2.722;2023-12-04T07:42:36;101377.84;;;13.88;73.99
54248;BME280;40161;39.768;2.722;2023-12-04T07:45:02;101375.13;;;13.91;73.81
54248;BME280;40161;39.768;2.722;2023-12-04T07:47:28;101368.09;;;13.94;74.62
54248;BME280;40161;39.768;2.722;2023-12-04T07:49:53;101379.16;;;13.97;74.79
54248;BME280;40161;39.768;2.722;2023-12-04T07:52:19;101375.19;;;13.95;74.79
54248;BME280;40161;39.768;2.722;2023-12-04T07:54:44;101369.28;;;13.96;74.50
54248;BME280;40161;39.768;2.722;2023-12-04T07:57:10;101362.22;;;13.99;74.89
54248;BME280;40161;39.768;2.722;2023-12-04T07:59:35;101361.00;;;13.96;75.26
54248;BME280;40161;39.768;2.722;2023-12-04T08:02:01;101367.59;;;13.88;75.67
54248;BME280;40161;39.768;2.722;2023-12-04T08:04:27;101375.53;;;13.93;74.96
54248;BME280;40161;39.768;2.722;2023-12-04T08:06:53;101360.16;;;13.92;75.24
54248;BME280;40161;39.768;2.722;2023-12-04T08:09:18;101361.00;;;13.96;75.15
54248;BME280;40161;39.768;2.722;2023-12-04T08:11:44;101367.31;;;13.97;74.64
54248;BME280;40161;39.768;2.722;2023-12-04T08:14:09;101349.91;;;13.93;74.68
54248;BME280;40161;39.768;2.722;2023-12-04T08:16:35;101363.53;;;14.09;74.80
54248;BME280;40161;39.768;2.722;2023-12-04T08:19:00;101317.00;;;13.77;74.15
54248;BME280;40161;39.768;2.722;2023-12-04T08:21:26;101387.59;;;14.08;75.08
54248;BME280;40161;39.768;2.722;2023-12-04T08:23:51;101381.28;;;14.08;74.88
54248;BME280;40161;39.768;2.722;2023-12-04T08:26:24;101385.19;;;14.07;75.97
54248;BME280;40161;39.768;2.722;2023-12-04T08:28:51;101367.31;;;13.97;74.99
54248;BME280;40161;39.768;2.722;2023-12-04T08:31:17;101396.31;;;14.14;75.15
54248;BME280;40161;39.768;2.722;2023-12-04T08:33:43;101353.91;;;13.95;77.06
54248;BME280;40161;39.768;2.722;2023-12-04T08:36:09;101374.16;;;14.07;76.52
54248;BME280;40161;39.768;2.722;2023-12-04T08:38:35;101360.09;;;14.15;74.55
54248;BME280;40161;39.768;2.722;2023-12-04T08:41:01;101353.38;;;14.16;72.68
54248;BME280;40161;39.768;2.722;2023-12-04T08:43:27;101348.34;;;14.22;73.85
54248;BME280;40161;39.768;2.722;2023-12-04T08:45:54;101321.75;;;14.10;74.28
54248;BME280;40161;39.768;2.722;2023-12-04T08:48:20;101325.31;;;14.11;74.59
54248;BME280;40161;39.768;2.722;2023-12-04T08:50:45;101334.56;;;14.25;74.79
54248;BME280;40161;39.768;2.722;2023-12-04T08:53:11;101334.50;;;14.18;73.42
54248;BME280;40161;39.768;2.722;2023-12-04T08:55:37;101329.38;;;14.20;71.56
54248;BME280;40161;39.768;2.722;2023-12-04T08:58:02;101334.50;;;14.18;71.50
54248;BME280;40161;39.768;2.722;2023-12-04T09:00:29;101324.25;;;14.19;71.28
54248;BME280;40161;39.768;2.722;2023-12-04T09:02:55;101326.66;;;14.24;71.73
54248;BME280;40161;39.768;2.722;2023-12-04T09:05:20;101331.72;;;14.18;71.52
54248;BME280;40161;39.768;2.722;2023-12-04T09:07:46;101325.91;;;14.27;70.10
54248;BME280;40161;39.768;2.722;2023-12-04T09:10:12;101300.16;;;14.16;72.06
54248;BME280;40161;39.768;2.722;2023-12-04T09:12:37;101336.16;;;14.27;72.77
54248;BME280;40161;39.768;2.722;2023-12-04T09:15:04;101309.22;;;14.16;74.08
54248;BME280;40161;39.768;2.722;2023-12-04T09:17:30;101325.63;;;14.36;75.16
54248;BME280;40161;39.768;2.722;2023-12-04T09:19:55;101326.41;;;14.36;75.07
54248;BME280;40161;39.768;2.722;2023-12-04T09:22:21;101333.16;;;14.39;77.38
54248;BME280;40161;39.768;2.722;2023-12-04T09:24:46;101338.22;;;14.33;77.21
54248;BME280;40161;39.768;2.722;2023-12-04T09:27:12;101297.44;;;14.19;77.24
54248;BME280;40161;39.768;2.722;2023-12-04T09:29:38;101328.47;;;14.43;78.94
54248;BME280;40161;39.768;2.722;2023-12-04T09:32:04;101331.66;;;14.48;79.32
54248;BME280;40161;39.768;2.722;2023-12-04T09:34:29;101324.44;;;14.37;78.99
54248;BME280;40161;39.768;2.722;2023-12-04T09:36:55;101312.53;;;14.29;80.29
54248;BME280;40161;39.768;2.722;2023-12-04T09:39:20;101315.59;;;14.54;80.78
54248;BME280;40161;39.768;2.722;2023-12-04T09:41:46;101291.16;;;14.56;80.07
54248;BME280;40161;39.768;2.722;2023-12-04T09:44:12;101302.34;;;14.70;80.43
54248;BME280;40161;39.768;2.722;2023-12-04T09:46:38;101268.59;;;14.51;80.47
54248;BME280;40161;39.768;2.722;2023-12-04T09:49:04;101287.00;;;14.77;80.69
54248;BME280;40161;39.768;2.722;2023-12-04T09:51:30;101285.88;;;14.85;79.87
54248;BME280;40161;39.768;2.722;2023-12-04T09:53:57;101264.06;;;14.72;79.13
54248;BME280;40161;39.768;2.722;2023-12-04T09:56:26;101277.50;;;14.74;78.78
54248;BME280;40161;39.768;2.722;2023-12-04T09:58:57;101328.53;;;14.84;78.49
54248;BME280;40161;39.768;2.722;2023-12-04T10:01:23;101299.53;;;14.67;78.74
54248;BME280;40161;39.768;2.722;2023-12-04T10:03:50;101315.47;;;14.81;78.32
54248;BME280;40161;39.768;2.722;2023-12-04T10:06:16;101305.59;;;14.80;77.71
54248;BME280;40161;39.768;2.722;2023-12-04T10:08:44;101318.94;;;14.74;78.11
54248;BME280;40161;39.768;2.722;2023-12-04T10:11:13;101311.84;;;14.73;78.87
54248;BME280;40161;39.768;2.722;2023-12-04T10:13:42;101334.75;;;14.74;78.70
54248;BME280;40161;39.768;2.722;2023-12-04T10:16:07;101330.41;;;14.76;79.83
54248;BME280;40161;39.768;2.722;2023-12-04T10:18:33;101301.59;;;14.74;79.53
54248;BME280;40161;39.768;2.722;2023-12-04T10:20:59;101299.91;;;14.65;78.88
54248;BME280;40161;39.768;2.722;2023-12-04T10:23:39;101301.19;;;14.75;79.89
54248;BME280;40161;39.768;2.722;2023-12-04T10:26:06;101302.91;;;14.87;79.89
54248;BME280;40161;39.768;2.722;2023-12-04T10:28:33;101286.34;;;14.90;79.93
54248;BME280;40161;39.768;2.722;2023-12-04T10:30:59;101269.44;;;14.99;79.74
54248;BME280;40161;39.768;2.722;2023-12-04T10:33:25;101270.63;;;15.02;79.94
54248;BME280;40161;39.768;2.722;2023-12-04T10:35:53;101267.09;;;15.05;79.61
54248;BME280;40161;39.768;2.722;2023-12-04T10:38:20;101264.72;;;15.07;77.61
54248;BME280;40161;39.768;2.722;2023-12-04T10:40:46;101265.19;;;15.12;77.48
54248;BME280;40161;39.768;2.722;2023-12-04T10:43:20;101248.88;;;15.00;76.37
54248;BME280;40161;39.768;2.722;2023-12-04T10:45:47;101242.16;;;14.94;76.32
54248;BME280;40161;39.768;2.722;2023-12-04T10:48:14;101254.81;;;14.99;75.67
54248;BME280;40161;39.768;2.722;2023-12-04T10:50:42;101267.94;;;15.09;77.52
54248;BME280;40161;39.768;2.722;2023-12-04T10:53:10;101257.94;;;14.93;78.16
54248;BME280;40161;39.768;2.722;2023-12-04T10:55:36;101289.97;;;15.02;79.13
54248;BME280;40161;39.768;2.722;2023-12-04T10:58:06;101280.94;;;15.05;78.31
54248;BME280;40161;39.768;2.722;2023-12-04T11:00:34;101265.09;;;14.98;77.68
54248;BME280;40161;39.768;2.722;2023-12-04T11:03:12;101288.44;;;15.04;79.13
54248;BME280;40161;39.768;2.722;2023-12-04T11:05:40;101271.44;;;15.02;78.84
54248;BME280;40161;39.768;2.722;2023-12-04T11:08:08;101245.78;;;15.05;79.54
54248;BME280;40161;39.768;2.722;2023-12-04T11:11:01;101239.41;;;14.94;80.84
54248;BME280;40161;39.768;2.722;2023-12-04T11:13:41;101226.72;;;14.93;81.71
54248;BME280;40161;39.768;2.722;2023-12-04T11:16:30;101246.94;;;15.01;81.06
54248;BME280;40161;39.768;2.722;2023-12-04T11:19:14;101253.63;;;15.00;80.85
54248;BME280;40161;39.768;2.722;2023-12-04T11:21:45;101258.00;;;15.01;80.04
54248;BME280;40161;39.768;2.722;2023-12-04T11:24:12;101235.03;;;14.93;80.83
54248;BME280;40161;39.768;2.722;2023-12-04T11:26:39;101256.78;;;14.98;79.67
54248;BME280;40161;39.768;2.722;2023-12-04T11:29:06;101266.13;;;14.83;80.69
54248;BME280;40161;39.768;2.722;2023-12-04T11:31:34;101259.44;;;14.84;80.96
54248;BME280;40161;39.768;2.722;2023-12-04T11:34:04;101265.66;;;14.74;81.49
54248;BME280;40161;39.768;2.722;2023-12-04T11:36:30;101262.88;;;14.70;82.10
54248;BME280;40161;39.768;2.722;2023-12-04T11:38:55;101253.81;;;14.69;82.29
54248;BME280;40161;39.768;2.722;2023-12-04T11:41:24;101220.47;;;14.52;81.50
54248;BME280;40161;39.768;2.722;2023-12-04T11:43:51;101234.03;;;14.67;81.76
54248;BME280;40161;39.768;2.722;2023-12-04T11:46:20;101238.38;;;14.68;81.58
54248;BME280;40161;39.768;2.722;2023-12-04T11:48:48;101234.81;;;14.68;80.69
54248;BME280;40161;39.768;2.722;2023-12-04T11:54:08;101221.47;;;14.74;81.33
54248;BME280;40161;39.768;2.722;2023-12-04T11:56:34;101226.59;;;14.75;81.45
54248;BME280;40161;39.768;2.722;2023-12-04T11:59:07;101206.75;;;14.62;80.01
54248;BME280;40161;39.768;2.722;2023-12-04T12:01:35;101220.28;;;14.75;79.95
54248;BME280;40161;39.768;2.722;2023-12-04T12:04:01;101214.81;;;14.82;79.63
54248;BME280;40161;39.768;2.722;2023-12-04T12:06:27;101196.59;;;14.74;77.53
54248;BME280;40161;39.768;2.722;2023-12-04T12:08:55;101219.59;;;14.88;78.01
54248;BME280;40161;39.768;2.722;2023-12-04T12:11:25;101217.25;;;14.87;77.07
54248;BME280;40161;39.768;2.722;2023-12-04T12:13:53;101221.19;;;14.93;77.24
54248;BME280;40161;39.768;2.722;2023-12-04T12:16:18;101188.44;;;14.91;75.82
54248;BME280;40161;39.768;2.722;2023-12-04T12:18:44;101178.13;;;14.85;76.42
54248;BME280;40161;39.768;2.722;2023-12-04T12:21:10;101191.22;;;14.95;76.71
54248;BME280;40161;39.768;2.722;2023-12-04T12:23:35;101172.59;;;14.85;76.86
54248;BME280;40161;39.768;2.722;2023-12-04T12:26:01;101183.75;;;14.99;76.20
54248;BME280;40161;39.768;2.722;2023-12-04T12:28:28;101175.84;;;14.98;76.40
54248;BME280;40161;39.768;2.722;2023-12-04T12:30:53;101169.47;;;14.90;76.51
54248;BME280;40161;39.768;2.722;2023-12-04T12:33:20;101178.56;;;14.90;73.89
54248;BME280;40161;39.768;2.722;2023-12-04T12:35:47;101158.38;;;14.86;71.91
54248;BME280;40161;39.768;2.722;2023-12-04T12:38:13;101180.59;;;14.97;73.94
54248;BME280;40161;39.768;2.722;2023-12-04T12:40:40;101179.78;;;15.00;73.92
54248;BME280;40161;39.768;2.722;2023-12-04T12:43:06;101151.63;;;14.77;71.75
54248;BME280;40161;39.768;2.722;2023-12-04T12:45:39;101167.13;;;14.92;73.95
54248;BME280;40161;39.768;2.722;2023-12-04T12:48:05;101178.97;;;14.96;73.94